createdAt,value
2019-02-28T00:00:41.465Z,45.60
2019-02-28T00:01:43.245Z,43.40
2019-02-28T00:02:41.790Z,45.40
2019-02-28T00:03:40.802Z,47.20
2019-02-28T00:04:40.775Z,45.70
2019-02-28T00:05:40.760Z,46.80
2019-02-28T00:06:44.064Z,45.70
2019-02-28T00:07:40.730Z,47.50
2019-02-28T00:08:40.712Z,47.70
2019-02-28T00:09:40.709Z,47.20
2019-02-28T00:10:40.710Z,48.20
2019-02-28T00:11:40.687Z,49.60
2019-02-28T00:12:40.708Z,48.10
2019-02-28T00:13:40.717Z,49.90
2019-02-28T00:14:40.653Z,48.50
2019-02-28T00:15:40.713Z,48.70
2019-02-28T00:16:40.630Z,43.90
2019-02-28T00:17:43.538Z,46.90
2019-02-28T00:18:40.647Z,45.90
2019-02-28T00:19:40.593Z,45.80
2019-02-28T00:20:40.582Z,44.60
2019-02-28T00:21:41.313Z,44.10
2019-02-28T00:22:40.568Z,49.50
2019-02-28T00:23:40.585Z,46.70
2019-02-28T00:24:40.585Z,49.00
2019-02-28T00:25:40.531Z,51.00
2019-02-28T00:26:46.533Z,51.00
2019-02-28T00:27:41.548Z,50.10
2019-02-28T00:28:40.499Z,49.70
2019-02-28T00:29:40.505Z,50.20
2019-02-28T00:30:40.901Z,50.80
2019-02-28T00:31:40.468Z,52.20
2019-02-28T00:32:40.445Z,49.00
2019-02-28T00:33:40.448Z,48.10
2019-02-28T00:34:40.446Z,51.20
2019-02-28T00:35:40.414Z,50.30
2019-02-28T00:36:40.459Z,49.40
2019-02-28T00:37:40.400Z,50.10
2019-02-28T00:38:40.393Z,48.10
2019-02-28T00:39:40.406Z,52.60
2019-02-28T00:40:40.374Z,49.10
2019-02-28T00:41:44.492Z,53.90
2019-02-28T00:42:40.346Z,48.60
2019-02-28T00:43:40.339Z,49.70
2019-02-28T00:44:40.315Z,50.70
2019-02-28T00:45:40.327Z,49.60
2019-02-28T00:46:43.998Z,50.40
2019-02-28T00:47:40.291Z,49.20
2019-02-28T00:48:40.301Z,48.40
2019-02-28T00:49:40.261Z,52.40
2019-02-28T00:50:40.251Z,50.00
2019-02-28T00:51:40.276Z,51.30
2019-02-28T00:52:40.230Z,54.20
2019-02-28T00:53:40.223Z,53.40
2019-02-28T00:54:44.376Z,56.10
2019-02-28T00:55:40.194Z,56.40
2019-02-28T00:56:40.220Z,56.80
2019-02-28T00:57:40.179Z,56.40
2019-02-28T00:58:40.165Z,56.00
2019-02-28T00:59:40.162Z,56.30
2019-02-28T01:00:40.157Z,54.40
2019-02-28T01:01:40.128Z,57.70
2019-02-28T01:02:40.227Z,59.50
2019-02-28T01:03:40.123Z,57.30
2019-02-28T01:04:40.094Z,59.80
2019-02-28T01:05:40.099Z,58.80
2019-02-28T01:06:41.778Z,58.80
2019-02-28T01:07:40.222Z,57.20
2019-02-28T01:08:40.093Z,56.50
2019-02-28T01:09:40.034Z,56.80
2019-02-28T01:10:40.082Z,59.90
2019-02-28T01:11:40.024Z,58.10
2019-02-28T01:12:40.017Z,59.10
2019-02-28T01:13:40.002Z,57.90
2019-02-28T01:14:40.029Z,62.00
2019-02-28T01:15:44.482Z,63.00
2019-02-28T01:16:41.412Z,59.90
2019-02-28T01:17:39.965Z,60.70
2019-02-28T01:18:39.958Z,61.00
2019-02-28T01:19:41.238Z,61.10
2019-02-28T01:20:39.954Z,59.90
2019-02-28T01:21:39.938Z,61.60
2019-02-28T01:22:39.900Z,60.70
2019-02-28T01:23:39.889Z,63.00
2019-02-28T01:24:39.885Z,61.50
2019-02-28T01:25:40.252Z,59.50
2019-02-28T01:26:39.858Z,62.20
2019-02-28T01:27:39.839Z,63.90
2019-02-28T01:28:39.838Z,63.10
2019-02-28T01:29:39.813Z,63.70
2019-02-28T01:30:40.560Z,65.40
2019-02-28T01:31:42.596Z,63.80
2019-02-28T01:32:39.798Z,65.30
2019-02-28T01:33:39.810Z,64.80
2019-02-28T01:34:39.766Z,67.50
2019-02-28T01:35:40.760Z,64.10
2019-02-28T01:36:39.737Z,65.20
2019-02-28T01:37:39.746Z,66.80
2019-02-28T01:38:39.744Z,65.20
2019-02-28T01:39:39.708Z,68.80
2019-02-28T01:40:39.725Z,64.30
2019-02-28T01:41:42.251Z,65.10
2019-02-28T01:42:40.734Z,65.60
2019-02-28T01:43:39.681Z,65.80
2019-02-28T01:44:39.655Z,63.60
2019-02-28T01:45:43.451Z,65.40
2019-02-28T01:46:39.639Z,67.80
2019-02-28T01:47:39.618Z,64.20
2019-02-28T01:48:39.639Z,65.30
2019-02-28T01:49:39.628Z,65.90
2019-02-28T01:50:39.633Z,68.20
2019-02-28T01:51:39.583Z,68.20
2019-02-28T01:52:44.550Z,65.30
2019-02-28T01:53:40.591Z,67.10
2019-02-28T01:54:39.587Z,68.40
2019-02-28T01:55:39.559Z,67.10
2019-02-28T01:56:39.526Z,69.40
2019-02-28T01:57:44.145Z,68.10
2019-02-28T01:58:39.504Z,69.50
2019-02-28T01:59:39.570Z,67.40
2019-02-28T02:00:39.513Z,68.40
2019-02-28T02:01:39.503Z,71.10
2019-02-28T02:02:39.465Z,67.00
2019-02-28T02:03:40.641Z,66.00
2019-02-28T02:04:39.443Z,68.50
2019-02-28T02:05:39.472Z,69.20
2019-02-28T02:06:39.443Z,70.80
2019-02-28T02:07:39.410Z,70.10
2019-02-28T02:08:39.398Z,67.70
2019-02-28T02:09:39.383Z,69.40
2019-02-28T02:10:39.433Z,70.50
2019-02-28T02:11:39.363Z,71.40
2019-02-28T02:12:39.366Z,69.50
2019-02-28T02:13:39.341Z,73.20
2019-02-28T02:14:39.364Z,73.50
2019-02-28T02:15:39.334Z,70.50
2019-02-28T02:16:39.335Z,71.80
2019-02-28T02:17:39.323Z,70.10
2019-02-28T02:18:40.270Z,70.80
2019-02-28T02:19:39.291Z,69.30
2019-02-28T02:20:39.274Z,70.20
2019-02-28T02:21:39.313Z,72.10
2019-02-28T02:22:40.631Z,72.60
2019-02-28T02:23:40.236Z,73.40
2019-02-28T02:24:39.242Z,73.20
2019-02-28T02:25:39.303Z,71.30
2019-02-28T02:26:39.213Z,75.30
2019-02-28T02:27:39.233Z,71.90
2019-02-28T02:28:39.176Z,73.20
2019-02-28T02:29:39.174Z,71.00
2019-02-28T02:30:39.225Z,72.30
2019-02-28T02:31:39.151Z,71.50
2019-02-28T02:32:39.228Z,72.30
2019-02-28T02:33:39.152Z,73.10
2019-02-28T02:34:39.124Z,73.10
2019-02-28T02:35:42.154Z,75.30
2019-02-28T02:36:39.097Z,73.30
2019-02-28T02:37:39.091Z,74.80
2019-02-28T02:38:41.578Z,73.90
2019-02-28T02:39:39.070Z,75.50
2019-02-28T02:40:39.059Z,71.90
2019-02-28T02:41:39.050Z,72.70
2019-02-28T02:42:39.039Z,73.60
2019-02-28T02:43:39.038Z,72.20
2019-02-28T02:44:39.024Z,76.60
2019-02-28T02:45:43.281Z,72.40
2019-02-28T02:46:38.994Z,72.90
2019-02-28T02:47:38.986Z,73.20
2019-02-28T02:48:42.356Z,74.00
2019-02-28T02:49:38.956Z,71.30
2019-02-28T02:50:38.959Z,73.20
2019-02-28T02:51:38.963Z,74.60
2019-02-28T02:52:38.919Z,74.20
2019-02-28T02:53:41.892Z,71.80
2019-02-28T02:54:38.993Z,76.70
2019-02-28T02:55:38.894Z,74.20
2019-02-28T02:56:42.006Z,76.20
2019-02-28T02:57:38.891Z,74.70
2019-02-28T02:58:38.905Z,75.50
2019-02-28T02:59:39.469Z,76.90
2019-02-28T03:00:38.843Z,78.90
2019-02-28T03:01:38.839Z,76.00
2019-02-28T03:02:38.848Z,78.90
2019-02-28T03:03:42.956Z,77.70
2019-02-28T03:04:39.831Z,75.80
2019-02-28T03:05:38.785Z,77.70
2019-02-28T03:06:38.788Z,77.20
2019-02-28T03:07:38.777Z,78.10
2019-02-28T03:08:38.818Z,77.10
2019-02-28T03:09:43.392Z,78.20
2019-02-28T03:10:39.779Z,76.90
2019-02-28T03:11:38.741Z,79.00
2019-02-28T03:12:38.720Z,87.00
2019-02-28T03:13:43.631Z,79.00
2019-02-28T03:14:39.717Z,78.40
2019-02-28T03:15:38.709Z,79.10
2019-02-28T03:16:38.669Z,77.30
2019-02-28T03:17:38.695Z,82.10
2019-02-28T03:18:38.665Z,82.50
2019-02-28T03:19:38.640Z,78.80
2019-02-28T03:20:41.132Z,79.60
2019-02-28T03:21:38.633Z,80.60
2019-02-28T03:22:38.607Z,80.80
2019-02-28T03:23:40.553Z,81.70
2019-02-28T03:24:38.574Z,80.60
2019-02-28T03:25:38.585Z,84.50
2019-02-28T03:26:41.856Z,81.90
2019-02-28T03:27:38.604Z,85.70
2019-02-28T03:28:38.584Z,84.20
2019-02-28T03:29:43.417Z,83.20
2019-02-28T03:30:39.545Z,83.60
2019-02-28T03:31:38.517Z,86.00
2019-02-28T03:32:41.979Z,87.90
2019-02-28T03:33:38.504Z,84.70
2019-02-28T03:34:38.514Z,88.30
2019-02-28T03:35:43.198Z,86.20
2019-02-28T03:36:39.483Z,85.00
2019-02-28T03:37:38.462Z,82.60
2019-02-28T03:38:38.506Z,89.40
2019-02-28T03:39:38.475Z,87.00
2019-02-28T03:40:40.445Z,89.90
2019-02-28T03:41:38.397Z,87.40
2019-02-28T03:42:38.383Z,90.60
2019-02-28T03:43:43.882Z,88.10
2019-02-28T03:44:39.425Z,87.90
2019-02-28T03:45:38.372Z,90.80
2019-02-28T03:46:38.364Z,87.50
2019-02-28T03:47:38.332Z,89.30
2019-02-28T03:48:38.329Z,89.70
2019-02-28T03:49:38.333Z,87.70
2019-02-28T03:50:38.321Z,94.10
2019-02-28T03:51:38.283Z,91.70
2019-02-28T03:52:42.778Z,89.70
2019-02-28T03:53:39.293Z,89.90
2019-02-28T03:54:38.285Z,90.60
2019-02-28T03:55:40.665Z,92.40
2019-02-28T03:56:38.252Z,91.50
2019-02-28T03:57:38.232Z,89.80
2019-02-28T03:58:42.896Z,93.60
2019-02-28T03:59:38.206Z,93.50
2019-02-28T04:00:38.216Z,89.80
2019-02-28T04:01:44.790Z,94.00
2019-02-28T04:02:39.235Z,92.20
2019-02-28T04:03:38.169Z,95.90
2019-02-28T04:04:38.199Z,90.90
2019-02-28T04:05:38.183Z,90.70
2019-02-28T04:06:40.835Z,89.30
2019-02-28T04:07:38.137Z,94.40
2019-02-28T04:08:38.127Z,98.20
2019-02-28T04:09:43.755Z,97.20
2019-02-28T04:10:39.130Z,95.90
2019-02-28T04:11:38.116Z,96.70
2019-02-28T04:12:45.133Z,96.40
2019-02-28T04:13:39.050Z,99.30
2019-02-28T04:14:38.056Z,93.50
2019-02-28T04:15:38.084Z,95.90
2019-02-28T04:16:38.099Z,98.50
2019-02-28T04:17:38.028Z,94.30
2019-02-28T04:18:44.344Z,94.40
2019-02-28T04:19:39.023Z,98.20
2019-02-28T04:20:38.133Z,96.20
2019-02-28T04:21:37.982Z,93.20
2019-02-28T04:22:37.984Z,98.20
2019-02-28T04:23:37.953Z,98.40
2019-02-28T04:24:37.939Z,102.90
2019-02-28T04:25:37.930Z,100.40
2019-02-28T04:26:37.942Z,101.60
2019-02-28T04:27:40.590Z,92.10
2019-02-28T04:28:37.923Z,96.90
2019-02-28T04:29:37.899Z,95.50
2019-02-28T04:30:42.629Z,101.80
2019-02-28T04:31:38.866Z,102.80
2019-02-28T04:32:37.891Z,101.00
2019-02-28T04:33:39.260Z,100.10
2019-02-28T04:34:37.840Z,106.10
2019-02-28T04:35:37.820Z,100.50
2019-02-28T04:36:37.819Z,101.20
2019-02-28T04:37:44.797Z,96.70
2019-02-28T04:38:38.867Z,101.40
2019-02-28T04:39:37.794Z,101.00
2019-02-28T04:40:37.795Z,100.80
2019-02-28T04:41:37.756Z,104.60
2019-02-28T04:42:37.760Z,104.90
2019-02-28T04:43:37.735Z,102.90
2019-02-28T04:44:37.780Z,100.70
2019-02-28T04:45:37.716Z,104.20
2019-02-28T04:46:37.698Z,104.20
2019-02-28T04:47:40.523Z,107.00
2019-02-28T04:48:37.676Z,108.30
2019-02-28T04:49:37.695Z,109.00
2019-02-28T04:50:37.724Z,106.60
2019-02-28T04:51:40.169Z,106.60
2019-02-28T04:52:37.687Z,105.70
2019-02-28T04:53:37.629Z,105.50
2019-02-28T04:54:37.615Z,106.50
2019-02-28T04:55:37.993Z,106.00
2019-02-28T04:56:37.628Z,109.60
2019-02-28T04:57:37.585Z,108.50
2019-02-28T04:58:37.580Z,107.40
2019-02-28T04:59:37.589Z,109.60
2019-02-28T05:00:38.074Z,104.60
2019-02-28T05:01:37.574Z,110.30
2019-02-28T05:02:37.531Z,106.70
2019-02-28T05:03:37.520Z,108.50
2019-02-28T05:04:37.508Z,107.10
2019-02-28T05:05:37.613Z,108.30
2019-02-28T05:06:37.496Z,105.80
2019-02-28T05:07:37.517Z,112.60
2019-02-28T05:08:38.946Z,107.10
2019-02-28T05:09:37.476Z,106.60
2019-02-28T05:10:37.484Z,109.40
2019-02-28T05:11:37.445Z,112.10
2019-02-28T05:12:39.742Z,112.30
2019-02-28T05:13:37.414Z,113.30
2019-02-28T05:14:37.415Z,109.30
2019-02-28T05:15:39.494Z,109.70
2019-02-28T05:16:37.382Z,106.90
2019-02-28T05:17:37.383Z,110.30
2019-02-28T05:18:37.413Z,113.10
2019-02-28T05:19:37.423Z,112.90
2019-02-28T05:20:37.390Z,105.40
2019-02-28T05:21:37.331Z,112.50
2019-02-28T05:22:37.343Z,107.50
2019-02-28T05:23:37.363Z,107.70
2019-02-28T05:24:39.475Z,112.20
2019-02-28T05:25:38.325Z,113.90
2019-02-28T05:26:37.298Z,114.30
2019-02-28T05:27:37.273Z,109.10
2019-02-28T05:28:40.299Z,117.50
2019-02-28T05:29:37.253Z,110.90
2019-02-28T05:30:37.273Z,110.50
2019-02-28T05:31:37.232Z,114.70
2019-02-28T05:32:37.310Z,117.20
2019-02-28T05:33:38.314Z,118.20
2019-02-28T05:34:37.222Z,112.10
2019-02-28T05:35:37.180Z,119.90
2019-02-28T05:36:37.926Z,112.50
2019-02-28T05:37:37.188Z,111.90
2019-02-28T05:38:37.160Z,118.20
2019-02-28T05:39:37.197Z,114.30
2019-02-28T05:40:40.486Z,114.30
2019-02-28T05:41:37.136Z,118.40
2019-02-28T05:42:37.110Z,120.70
2019-02-28T05:43:37.111Z,118.50
2019-02-28T05:44:37.463Z,121.30
2019-02-28T05:45:37.108Z,121.40
2019-02-28T05:46:37.088Z,113.80
2019-02-28T05:47:45.831Z,112.80
2019-02-28T05:48:38.602Z,113.80
2019-02-28T05:49:37.035Z,121.60
2019-02-28T05:50:37.069Z,124.50
2019-02-28T05:51:37.040Z,124.60
2019-02-28T05:52:37.003Z,122.00
2019-02-28T05:53:37.056Z,113.90
2019-02-28T05:54:36.995Z,120.90
2019-02-28T05:55:36.975Z,117.30
2019-02-28T05:56:37.009Z,121.50
2019-02-28T05:57:39.342Z,119.60
2019-02-28T05:58:37.955Z,118.80
2019-02-28T05:59:36.945Z,120.50
2019-02-28T06:00:37.756Z,117.50
2019-02-28T06:01:36.940Z,119.20
2019-02-28T06:02:36.909Z,114.10
2019-02-28T06:03:36.890Z,121.40
2019-02-28T06:04:37.779Z,120.10
2019-02-28T06:05:38.843Z,116.90
2019-02-28T06:06:36.885Z,113.20
2019-02-28T06:07:36.871Z,115.30
2019-02-28T06:08:39.221Z,123.60
2019-02-28T06:09:36.962Z,121.00
2019-02-28T06:10:36.822Z,116.30
2019-02-28T06:11:36.824Z,122.80
2019-02-28T06:12:36.845Z,124.00
2019-02-28T06:13:37.152Z,121.00
2019-02-28T06:14:36.785Z,123.60
2019-02-28T06:15:37.198Z,119.50
2019-02-28T06:16:36.756Z,127.40
2019-02-28T06:17:36.835Z,124.20
2019-02-28T06:18:36.767Z,125.10
2019-02-28T06:19:36.746Z,125.70
2019-02-28T06:20:36.725Z,124.80
2019-02-28T06:21:36.737Z,130.10
2019-02-28T06:22:36.714Z,126.10
2019-02-28T06:23:36.691Z,122.00
2019-02-28T06:24:36.691Z,130.60
2019-02-28T06:25:36.655Z,128.80
2019-02-28T06:26:36.704Z,132.50
2019-02-28T06:27:41.681Z,131.40
2019-02-28T06:28:37.641Z,128.30
2019-02-28T06:29:37.516Z,134.70
2019-02-28T06:30:36.610Z,133.70
2019-02-28T06:31:36.650Z,133.20
2019-02-28T06:32:36.603Z,134.10
2019-02-28T06:33:36.581Z,136.40
2019-02-28T06:34:39.436Z,133.40
2019-02-28T06:35:37.577Z,143.90
2019-02-28T06:36:36.557Z,136.80
2019-02-28T06:37:38.399Z,139.40
2019-02-28T06:38:36.544Z,133.40
2019-02-28T06:39:37.565Z,139.80
2019-02-28T06:40:36.592Z,141.20
2019-02-28T06:41:39.965Z,144.00
2019-02-28T06:42:36.488Z,141.00
2019-02-28T06:43:36.479Z,144.30
2019-02-28T06:44:36.466Z,142.50
2019-02-28T06:45:37.688Z,149.40
2019-02-28T06:46:39.755Z,146.60
2019-02-28T06:47:36.424Z,149.00
2019-02-28T06:48:36.431Z,147.40
2019-02-28T06:49:40.990Z,150.60
2019-02-28T06:50:37.424Z,147.40
2019-02-28T06:51:36.439Z,148.90
2019-02-28T06:52:36.391Z,149.10
2019-02-28T06:53:36.429Z,149.60
2019-02-28T06:54:36.366Z,153.30
2019-02-28T06:55:36.367Z,153.30
2019-02-28T06:56:36.347Z,165.00
2019-02-28T06:57:36.338Z,171.00
2019-02-28T06:58:36.324Z,164.00
2019-02-28T06:59:39.037Z,166.40
2019-02-28T07:00:36.311Z,165.70
2019-02-28T07:01:36.331Z,163.50
2019-02-28T07:02:36.375Z,168.70
2019-02-28T07:03:38.930Z,165.10
2019-02-28T07:04:36.249Z,184.40
2019-02-28T07:05:36.272Z,186.00
2019-02-28T07:06:36.634Z,194.60
2019-02-28T07:07:36.227Z,198.70
2019-02-28T07:08:36.236Z,198.10
2019-02-28T07:09:36.409Z,207.40
2019-02-28T07:10:36.217Z,198.60
2019-02-28T07:11:36.199Z,196.70
2019-02-28T07:12:36.179Z,202.90
2019-02-28T07:13:39.276Z,213.50
2019-02-28T07:14:36.224Z,216.10
2019-02-28T07:15:36.142Z,208.10
2019-02-28T07:16:37.855Z,208.10
2019-02-28T07:17:36.203Z,208.90
2019-02-28T07:18:36.118Z,215.30
2019-02-28T07:19:36.096Z,224.00
2019-02-28T07:20:36.189Z,234.50
2019-02-28T07:21:36.083Z,229.60
2019-02-28T07:22:36.064Z,243.00
2019-02-28T07:23:36.159Z,234.70
2019-02-28T07:24:37.438Z,224.60
2019-02-28T07:25:36.033Z,224.00
2019-02-28T07:26:36.021Z,222.60
2019-02-28T07:27:36.009Z,219.90
2019-02-28T07:28:37.482Z,224.50
2019-02-28T07:29:36.032Z,218.10
2019-02-28T07:30:35.982Z,223.90
2019-02-28T07:31:36.012Z,216.60
2019-02-28T07:32:35.957Z,219.30
2019-02-28T07:33:35.948Z,220.80
2019-02-28T07:34:35.935Z,198.70
2019-02-28T07:35:36.878Z,208.70
2019-02-28T07:36:35.914Z,223.10
2019-02-28T07:37:35.917Z,221.20
2019-02-28T07:38:35.911Z,220.40
2019-02-28T07:39:36.517Z,220.80
2019-02-28T07:40:35.899Z,220.30
2019-02-28T07:41:35.914Z,230.60
2019-02-28T07:42:37.633Z,220.90
2019-02-28T07:43:35.851Z,214.60
2019-02-28T07:44:38.014Z,202.60
2019-02-28T07:45:35.850Z,202.80
2019-02-28T07:46:38.701Z,207.10
2019-02-28T07:47:36.806Z,206.20
2019-02-28T07:48:35.794Z,208.40
2019-02-28T07:49:36.934Z,204.40
2019-02-28T07:50:35.777Z,201.70
2019-02-28T07:51:35.792Z,199.60
2019-02-28T07:52:35.761Z,198.20
2019-02-28T07:53:35.770Z,197.90
2019-02-28T07:54:35.729Z,199.00
2019-02-28T07:55:35.760Z,192.20
2019-02-28T07:56:42.666Z,198.30
2019-02-28T07:57:36.722Z,201.50
2019-02-28T07:58:35.677Z,198.10
2019-02-28T07:59:40.946Z,195.50
2019-02-28T08:00:36.659Z,200.40
2019-02-28T08:01:35.684Z,201.90
2019-02-28T08:02:39.210Z,201.30
2019-02-28T08:03:35.673Z,198.90
2019-02-28T08:04:35.609Z,189.00
2019-02-28T08:05:35.604Z,203.70
2019-02-28T08:06:36.318Z,204.30
2019-02-28T08:07:35.629Z,205.20
2019-02-28T08:08:35.603Z,211.50
2019-02-28T08:09:36.759Z,200.40
2019-02-28T08:10:36.595Z,209.80
2019-02-28T08:11:35.545Z,202.00
2019-02-28T08:12:35.551Z,208.00
2019-02-28T08:13:37.893Z,214.30
2019-02-28T08:14:35.525Z,212.80
2019-02-28T08:15:35.493Z,213.10
2019-02-28T08:16:35.483Z,218.30
2019-02-28T08:17:35.490Z,210.10
2019-02-28T08:18:35.478Z,207.30
2019-02-28T08:19:35.505Z,205.10
2019-02-28T08:20:35.455Z,209.40
2019-02-28T08:21:35.479Z,210.30
2019-02-28T08:22:35.438Z,209.00
2019-02-28T08:23:37.403Z,205.50
2019-02-28T08:24:36.085Z,208.40
2019-02-28T08:25:35.547Z,194.10
2019-02-28T08:26:35.408Z,207.30
2019-02-28T08:27:35.368Z,192.50
2019-02-28T08:28:36.715Z,202.80
2019-02-28T08:29:35.363Z,213.00
2019-02-28T08:30:35.337Z,206.10
2019-02-28T08:31:35.343Z,208.60
2019-02-28T08:32:35.321Z,192.40
2019-02-28T08:33:35.368Z,199.40
2019-02-28T08:34:35.302Z,196.10
2019-02-28T08:35:35.900Z,189.30
2019-02-28T08:36:35.322Z,184.90
2019-02-28T08:37:35.293Z,179.30
2019-02-28T08:38:35.266Z,174.40
2019-02-28T08:39:35.311Z,183.70
2019-02-28T08:40:35.236Z,171.00
2019-02-28T08:41:35.222Z,172.50
2019-02-28T08:42:38.468Z,166.20
2019-02-28T08:43:35.219Z,166.80
2019-02-28T08:44:35.200Z,160.30
2019-02-28T08:45:35.203Z,160.20
2019-02-28T08:46:35.168Z,166.60
2019-02-28T08:47:35.167Z,157.90
2019-02-28T08:48:35.313Z,158.20
2019-02-28T08:49:35.165Z,168.00
2019-02-28T08:50:35.170Z,161.00
2019-02-28T08:51:35.111Z,162.60
2019-02-28T08:52:37.594Z,150.70
2019-02-28T08:53:36.126Z,161.80
2019-02-28T08:54:35.093Z,155.00
2019-02-28T08:55:38.390Z,155.60
2019-02-28T08:56:35.065Z,150.10
2019-02-28T08:57:35.065Z,148.20
2019-02-28T08:58:37.769Z,164.00
2019-02-28T08:59:35.067Z,149.70
2019-02-28T09:00:35.039Z,146.70
2019-02-28T09:01:40.025Z,144.20
2019-02-28T09:02:36.072Z,150.80
2019-02-28T09:03:34.992Z,140.30
2019-02-28T09:04:41.299Z,141.90
2019-02-28T09:05:36.009Z,142.70
2019-02-28T09:06:37.896Z,135.20
2019-02-28T09:07:35.972Z,142.30
2019-02-28T09:08:34.934Z,138.10
2019-02-28T09:09:35.344Z,135.80
2019-02-28T09:10:34.919Z,127.20
2019-02-28T09:11:34.904Z,136.30
2019-02-28T09:12:34.947Z,127.40
2019-02-28T09:13:34.908Z,119.50
2019-02-28T09:14:34.873Z,122.00
2019-02-28T09:15:34.889Z,125.50
2019-02-28T09:16:36.670Z,122.20
2019-02-28T09:17:34.882Z,124.20
2019-02-28T09:18:34.898Z,120.10
2019-02-28T09:19:36.023Z,128.20
2019-02-28T09:20:34.922Z,116.70
2019-02-28T09:21:34.801Z,113.30
2019-02-28T09:22:34.893Z,113.40
2019-02-28T09:23:37.563Z,116.00
2019-02-28T09:24:34.900Z,119.40
2019-02-28T09:25:34.756Z,119.00
2019-02-28T09:26:34.744Z,113.00
2019-02-28T09:27:35.280Z,114.50
2019-02-28T09:28:34.732Z,105.80
2019-02-28T09:29:34.816Z,104.20
2019-02-28T09:30:34.797Z,110.10
2019-02-28T09:31:38.686Z,106.30
2019-02-28T09:32:34.679Z,105.80
2019-02-28T09:33:34.710Z,107.40
2019-02-28T09:34:34.689Z,102.30
2019-02-28T09:35:34.663Z,99.30
2019-02-28T09:36:34.641Z,99.30
2019-02-28T09:37:34.627Z,101.40
2019-02-28T09:38:34.623Z,98.70
2019-02-28T09:39:34.630Z,87.80
2019-02-28T09:40:34.620Z,85.60
2019-02-28T09:41:36.492Z,83.00
2019-02-28T09:42:35.614Z,78.30
2019-02-28T09:43:34.572Z,84.00
2019-02-28T09:44:34.551Z,84.10
2019-02-28T09:45:34.558Z,79.90
2019-02-28T09:46:34.547Z,78.50
2019-02-28T09:47:34.527Z,82.30
2019-02-28T09:48:37.104Z,71.90
2019-02-28T09:49:34.557Z,70.00
2019-02-28T09:50:34.499Z,68.50
2019-02-28T09:51:34.496Z,68.30
2019-02-28T09:52:34.507Z,68.30
2019-02-28T09:53:34.501Z,64.80
2019-02-28T09:54:34.447Z,67.90
2019-02-28T09:55:35.510Z,63.70
2019-02-28T09:56:34.434Z,66.30
2019-02-28T09:57:34.459Z,65.60
2019-02-28T09:58:34.410Z,63.00
2019-02-28T09:59:37.829Z,64.60
2019-02-28T10:00:34.398Z,63.40
2019-02-28T10:01:34.367Z,66.30
2019-02-28T10:02:34.370Z,66.00
2019-02-28T10:03:34.724Z,65.40
2019-02-28T10:04:34.354Z,67.20
2019-02-28T10:05:34.370Z,70.60
2019-02-28T10:06:34.320Z,70.10
2019-02-28T10:07:34.300Z,70.20
2019-02-28T10:08:36.923Z,66.70
2019-02-28T10:09:34.278Z,63.20
2019-02-28T10:10:34.297Z,64.60
2019-02-28T10:11:34.262Z,63.70
2019-02-28T10:12:34.270Z,66.80
2019-02-28T10:13:34.247Z,69.00
2019-02-28T10:14:34.686Z,63.00
2019-02-28T10:15:34.225Z,60.10
2019-02-28T10:16:34.237Z,62.10
2019-02-28T10:17:34.196Z,63.20
2019-02-28T10:18:35.583Z,60.30
2019-02-28T10:19:42.799Z,59.60
2019-02-28T10:20:35.198Z,63.90
2019-02-28T10:21:36.475Z,63.40
2019-02-28T10:22:34.151Z,52.30
2019-02-28T10:23:34.138Z,58.00
2019-02-28T10:24:34.179Z,58.90
2019-02-28T10:25:34.136Z,56.90
2019-02-28T10:26:34.111Z,57.00
2019-02-28T10:27:34.113Z,61.30
2019-02-28T10:28:34.081Z,61.60
2019-02-28T10:29:34.074Z,61.80
2019-02-28T10:30:34.064Z,60.40
2019-02-28T10:31:38.019Z,60.40
2019-02-28T10:32:34.040Z,55.40
2019-02-28T10:33:34.049Z,57.70
2019-02-28T10:34:35.413Z,59.20
2019-02-28T10:35:36.959Z,63.30
2019-02-28T10:36:34.013Z,57.70
2019-02-28T10:37:35.603Z,54.10
2019-02-28T10:38:34.003Z,55.50
2019-02-28T10:39:33.986Z,56.20
2019-02-28T10:40:33.958Z,55.70
2019-02-28T10:41:33.940Z,54.90
2019-02-28T10:42:33.930Z,53.30
2019-02-28T10:43:33.931Z,54.00
2019-02-28T10:44:33.948Z,51.50
2019-02-28T10:45:33.913Z,56.40
2019-02-28T10:46:35.987Z,58.90
2019-02-28T10:47:33.874Z,55.10
2019-02-28T10:48:35.287Z,52.70
2019-02-28T10:49:33.852Z,49.90
2019-02-28T10:50:33.862Z,55.20
2019-02-28T10:51:33.829Z,50.60
2019-02-28T10:52:33.835Z,56.80
2019-02-28T10:53:36.232Z,52.70
2019-02-28T10:54:34.805Z,52.10
2019-02-28T10:55:33.787Z,52.80
2019-02-28T10:56:33.785Z,55.10
2019-02-28T10:57:33.758Z,57.00
2019-02-28T10:58:33.771Z,59.70
2019-02-28T10:59:33.771Z,59.70
2019-02-28T11:00:33.811Z,55.70
2019-02-28T11:01:33.779Z,54.40
2019-02-28T11:02:33.724Z,52.30
2019-02-28T11:03:33.701Z,55.60
2019-02-28T11:04:33.685Z,55.30
2019-02-28T11:05:33.693Z,52.20
2019-02-28T11:06:33.671Z,52.40
2019-02-28T11:07:34.244Z,55.30
2019-02-28T11:08:33.668Z,51.30
2019-02-28T11:09:33.647Z,57.90
2019-02-28T11:10:35.505Z,58.20
2019-02-28T11:11:33.620Z,53.20
2019-02-28T11:12:33.604Z,51.50
2019-02-28T11:13:33.599Z,53.40
2019-02-28T11:14:35.533Z,56.20
2019-02-28T11:15:34.598Z,52.80
2019-02-28T11:16:33.571Z,48.60
2019-02-28T11:17:34.315Z,51.70
2019-02-28T11:18:33.544Z,49.70
2019-02-28T11:19:33.529Z,48.10
2019-02-28T11:20:33.572Z,49.40
2019-02-28T11:21:33.547Z,47.20
2019-02-28T11:22:36.499Z,45.90
2019-02-28T11:23:34.496Z,50.70
2019-02-28T11:24:33.475Z,48.20
2019-02-28T11:25:35.548Z,50.50
2019-02-28T11:26:33.483Z,49.20
2019-02-28T11:27:33.441Z,48.60
2019-02-28T11:28:33.434Z,46.10
2019-02-28T11:29:35.179Z,49.20
2019-02-28T11:30:33.430Z,50.20
2019-02-28T11:31:33.402Z,50.30
2019-02-28T11:32:33.428Z,46.80
2019-02-28T11:33:33.389Z,50.40
2019-02-28T11:34:33.393Z,50.20
2019-02-28T11:35:33.357Z,48.60
2019-02-28T11:36:34.129Z,48.40
2019-02-28T11:37:33.368Z,52.00
2019-02-28T11:38:33.338Z,54.30
2019-02-28T11:39:33.810Z,48.90
2019-02-28T11:40:33.295Z,48.40
2019-02-28T11:41:33.385Z,50.50
2019-02-28T11:42:33.287Z,46.60
2019-02-28T11:43:37.242Z,43.70
2019-02-28T11:44:34.270Z,48.10
2019-02-28T11:45:33.248Z,45.50
2019-02-28T11:46:36.553Z,46.10
2019-02-28T11:47:33.254Z,47.40
2019-02-28T11:48:33.271Z,45.70
2019-02-28T11:49:33.196Z,52.20
2019-02-28T11:50:33.189Z,47.20
2019-02-28T11:51:33.207Z,47.50
2019-02-28T11:52:33.190Z,48.70
2019-02-28T11:53:33.274Z,45.60
2019-02-28T11:54:33.179Z,47.90
2019-02-28T11:55:33.150Z,43.30
2019-02-28T11:56:33.144Z,45.50
2019-02-28T11:57:33.111Z,43.50
2019-02-28T11:58:33.144Z,42.80
2019-02-28T11:59:33.110Z,40.60
2019-02-28T12:00:35.643Z,41.50
2019-02-28T12:01:33.120Z,41.30
2019-02-28T12:02:33.066Z,42.80
2019-02-28T12:03:35.455Z,42.50
2019-02-28T12:04:33.072Z,42.20
2019-02-28T12:05:33.044Z,41.70
2019-02-28T12:06:33.042Z,41.10
2019-02-28T12:07:34.885Z,44.10
2019-02-28T12:08:33.021Z,39.50
2019-02-28T12:09:32.986Z,46.10
2019-02-28T12:10:32.993Z,46.00
2019-02-28T12:11:33.539Z,44.70
2019-02-28T12:12:32.974Z,47.00
2019-02-28T12:13:32.947Z,44.40
2019-02-28T12:14:33.176Z,47.80
2019-02-28T12:15:32.944Z,44.80
2019-02-28T12:16:32.911Z,47.00
2019-02-28T12:17:32.922Z,49.70
2019-02-28T12:18:32.929Z,42.10
2019-02-28T12:19:32.877Z,49.10
2019-02-28T12:20:33.390Z,49.30
2019-02-28T12:21:37.654Z,45.90
2019-02-28T12:22:33.855Z,45.80
2019-02-28T12:23:32.849Z,45.40
2019-02-28T12:24:33.244Z,49.90
2019-02-28T12:25:32.807Z,46.90
2019-02-28T12:26:32.844Z,49.60
2019-02-28T12:27:32.795Z,50.30
2019-02-28T12:28:35.221Z,42.80
2019-02-28T12:29:33.762Z,47.40
2019-02-28T12:30:32.788Z,46.10
2019-02-28T12:31:35.597Z,50.00
2019-02-28T12:32:32.736Z,45.30
2019-02-28T12:33:32.739Z,47.40
2019-02-28T12:34:32.866Z,43.50
2019-02-28T12:35:37.445Z,44.90
2019-02-28T12:36:33.716Z,44.50
2019-02-28T12:37:34.381Z,42.50
2019-02-28T12:38:32.670Z,44.20
2019-02-28T12:39:33.342Z,40.00
2019-02-28T12:40:32.655Z,43.30
2019-02-28T12:41:32.701Z,42.30
2019-02-28T12:42:34.647Z,38.80